sensor_id;sensor_type;location;lat;lon;timestamp;P1;durP1;ratioP1;P2;durP2;ratioP2
974;SDS011;6115;49.296;10.602;2023-04-05T00:04:28;7.40;;;5.00;;
974;SDS011;6115;49.296;10.602;2023-04-05T00:09:29;8.50;;;5.50;;
974;SDS011;6115;49.296;10.602;2023-04-05T00:14:29;8.97;;;5.30;;
974;SDS011;6115;49.296;10.602;2023-04-05T00:19:30;6.03;;;4.87;;
974;SDS011;6115;49.296;10.602;2023-04-05T00:24:32;8.50;;;5.50;;
974;SDS011;6115;49.296;10.602;2023-04-05T00:29:37;9.80;;;6.00;;
974;SDS011;6115;49.296;10.602;2023-04-05T00:34:38;10.20;;;5.27;;
974;SDS011;6115;49.296;10.602;2023-04-05T00:39:38;10.40;;;5.47;;
974;SDS011;6115;49.296;10.602;2023-04-05T00:44:39;6.97;;;5.33;;
974;SDS011;6115;49.296;10.602;2023-04-05T00:49:40;7.60;;;5.33;;
974;SDS011;6115;49.296;10.602;2023-04-05T00:54:41;7.97;;;5.43;;
974;SDS011;6115;49.296;10.602;2023-04-05T00:59:42;7.67;;;5.60;;
974;SDS011;6115;49.296;10.602;2023-04-05T01:04:43;5.67;;;5.07;;
974;SDS011;6115;49.296;10.602;2023-04-05T01:09:55;6.90;;;5.33;;
974;SDS011;6115;49.296;10.602;2023-04-05T01:14:57;6.13;;;4.60;;
974;SDS011;6115;49.296;10.602;2023-04-05T01:19:59;8.27;;;5.30;;
974;SDS011;6115;49.296;10.602;2023-04-05T01:30:40;5.93;;;5.10;;
974;SDS011;6115;49.296;10.602;2023-04-05T01:35:58;8.20;;;4.80;;
974;SDS011;6115;49.296;10.602;2023-04-05T01:41:18;9.23;;;5.20;;
974;SDS011;6115;49.296;10.602;2023-04-05T01:46:18;12.37;;;7.03;;
974;SDS011;6115;49.296;10.602;2023-04-05T01:51:19;11.73;;;5.70;;
974;SDS011;6115;49.296;10.602;2023-04-05T01:56:20;8.73;;;5.57;;
974;SDS011;6115;49.296;10.602;2023-04-05T02:01:20;8.37;;;5.97;;
974;SDS011;6115;49.296;10.602;2023-04-05T02:06:21;8.50;;;5.23;;
974;SDS011;6115;49.296;10.602;2023-04-05T02:11:22;8.47;;;5.87;;
974;SDS011;6115;49.296;10.602;2023-04-05T02:16:22;6.30;;;4.47;;
974;SDS011;6115;49.296;10.602;2023-04-05T02:21:24;8.20;;;5.00;;
974;SDS011;6115;49.296;10.602;2023-04-05T02:26:25;6.20;;;4.70;;
974;SDS011;6115;49.296;10.602;2023-04-05T02:31:26;7.20;;;4.50;;
974;SDS011;6115;49.296;10.602;2023-04-05T02:36:26;7.13;;;5.27;;
974;SDS011;6115;49.296;10.602;2023-04-05T02:41:29;9.97;;;6.00;;
974;SDS011;6115;49.296;10.602;2023-04-05T02:46:30;10.60;;;5.30;;
974;SDS011;6115;49.296;10.602;2023-04-05T02:51:30;6.13;;;4.60;;
974;SDS011;6115;49.296;10.602;2023-04-05T02:56:33;9.77;;;4.97;;
974;SDS011;6115;49.296;10.602;2023-04-05T03:01:33;7.07;;;5.43;;
974;SDS011;6115;49.296;10.602;2023-04-05T03:06:35;11.57;;;5.13;;
974;SDS011;6115;49.296;10.602;2023-04-05T03:11:35;7.50;;;5.27;;
974;SDS011;6115;49.296;10.602;2023-04-05T03:16:36;8.47;;;5.00;;
974;SDS011;6115;49.296;10.602;2023-04-05T03:21:38;6.50;;;5.47;;
974;SDS011;6115;49.296;10.602;2023-04-05T03:26:40;10.07;;;5.43;;
974;SDS011;6115;49.296;10.602;2023-04-05T03:31:43;7.00;;;4.93;;
974;SDS011;6115;49.296;10.602;2023-04-05T03:36:44;5.20;;;4.47;;
974;SDS011;6115;49.296;10.602;2023-04-05T03:41:46;8.93;;;5.20;;
974;SDS011;6115;49.296;10.602;2023-04-05T03:46:47;9.57;;;5.87;;
974;SDS011;6115;49.296;10.602;2023-04-05T03:51:47;5.67;;;4.57;;
974;SDS011;6115;49.296;10.602;2023-04-05T03:56:48;10.40;;;5.90;;
974;SDS011;6115;49.296;10.602;2023-04-05T04:01:48;7.33;;;5.40;;
974;SDS011;6115;49.296;10.602;2023-04-05T04:06:49;12.53;;;6.10;;
974;SDS011;6115;49.296;10.602;2023-04-05T04:11:50;8.60;;;5.27;;
974;SDS011;6115;49.296;10.602;2023-04-05T04:16:51;8.07;;;4.77;;
974;SDS011;6115;49.296;10.602;2023-04-05T04:21:51;6.63;;;5.67;;
974;SDS011;6115;49.296;10.602;2023-04-05T04:26:52;8.37;;;6.50;;
974;SDS011;6115;49.296;10.602;2023-04-05T04:31:53;8.97;;;5.50;;
974;SDS011;6115;49.296;10.602;2023-04-05T04:36:53;8.27;;;5.60;;
974;SDS011;6115;49.296;10.602;2023-04-05T04:42:00;8.40;;;6.10;;
974;SDS011;6115;49.296;10.602;2023-04-05T04:47:00;8.77;;;6.03;;
974;SDS011;6115;49.296;10.602;2023-04-05T04:52:01;8.67;;;5.87;;
974;SDS011;6115;49.296;10.602;2023-04-05T04:57:01;7.93;;;6.20;;
974;SDS011;6115;49.296;10.602;2023-04-05T05:02:02;6.90;;;5.23;;
974;SDS011;6115;49.296;10.602;2023-04-05T05:07:03;7.50;;;4.63;;
974;SDS011;6115;49.296;10.602;2023-04-05T05:12:03;7.93;;;5.60;;
974;SDS011;6115;49.296;10.602;2023-04-05T05:17:04;8.60;;;5.53;;
974;SDS011;6115;49.296;10.602;2023-04-05T05:22:05;7.70;;;4.67;;
974;SDS011;6115;49.296;10.602;2023-04-05T05:27:06;12.37;;;5.80;;
974;SDS011;6115;49.296;10.602;2023-04-05T05:32:07;10.03;;;5.70;;
974;SDS011;6115;49.296;10.602;2023-04-05T05:37:08;8.40;;;5.20;;
974;SDS011;6115;49.296;10.602;2023-04-05T05:42:08;12.73;;;5.73;;
974;SDS011;6115;49.296;10.602;2023-04-05T05:47:09;13.50;;;6.53;;
974;SDS011;6115;49.296;10.602;2023-04-05T05:52:10;14.90;;;6.90;;
974;SDS011;6115;49.296;10.602;2023-04-05T05:57:10;10.50;;;5.77;;
974;SDS011;6115;49.296;10.602;2023-04-05T06:02:11;10.07;;;6.33;;
974;SDS011;6115;49.296;10.602;2023-04-05T06:07:12;8.50;;;5.73;;
974;SDS011;6115;49.296;10.602;2023-04-05T06:12:12;12.90;;;7.20;;
974;SDS011;6115;49.296;10.602;2023-04-05T06:17:13;11.97;;;7.20;;
974;SDS011;6115;49.296;10.602;2023-04-05T06:22:13;11.80;;;8.30;;
974;SDS011;6115;49.296;10.602;2023-04-05T06:27:14;15.20;;;8.57;;
974;SDS011;6115;49.296;10.602;2023-04-05T06:32:14;10.70;;;7.10;;
974;SDS011;6115;49.296;10.602;2023-04-05T06:37:15;10.63;;;7.43;;
974;SDS011;6115;49.296;10.602;2023-04-05T06:42:16;13.67;;;8.33;;
974;SDS011;6115;49.296;10.602;2023-04-05T06:47:16;12.60;;;7.30;;
974;SDS011;6115;49.296;10.602;2023-04-05T06:52:17;13.43;;;6.97;;
974;SDS011;6115;49.296;10.602;2023-04-05T06:57:17;8.90;;;6.20;;
974;SDS011;6115;49.296;10.602;2023-04-05T07:02:18;12.10;;;7.57;;
974;SDS011;6115;49.296;10.602;2023-04-05T07:07:22;12.20;;;7.43;;
974;SDS011;6115;49.296;10.602;2023-04-05T07:12:22;12.73;;;5.90;;
974;SDS011;6115;49.296;10.602;2023-04-05T07:17:23;48.13;;;14.90;;
974;SDS011;6115;49.296;10.602;2023-04-05T07:22:23;6.57;;;5.77;;
974;SDS011;6115;49.296;10.602;2023-04-05T07:27:24;9.60;;;5.50;;
974;SDS011;6115;49.296;10.602;2023-04-05T07:32:25;7.60;;;4.67;;
974;SDS011;6115;49.296;10.602;2023-04-05T07:37:25;5.83;;;4.80;;
974;SDS011;6115;49.296;10.602;2023-04-05T07:42:26;6.93;;;5.07;;
974;SDS011;6115;49.296;10.602;2023-04-05T07:47:27;5.67;;;4.23;;
974;SDS011;6115;49.296;10.602;2023-04-05T07:52:27;7.93;;;4.80;;
974;SDS011;6115;49.296;10.602;2023-04-05T07:57:28;9.30;;;4.80;;
974;SDS011;6115;49.296;10.602;2023-04-05T08:02:28;7.73;;;4.70;;
974;SDS011;6115;49.296;10.602;2023-04-05T08:07:29;7.90;;;4.77;;
974;SDS011;6115;49.296;10.602;2023-04-05T08:12:30;8.10;;;4.80;;
974;SDS011;6115;49.296;10.602;2023-04-05T08:17:31;8.00;;;3.67;;
974;SDS011;6115;49.296;10.602;2023-04-05T08:22:31;10.77;;;4.40;;
974;SDS011;6115;49.296;10.602;2023-04-05T08:27:32;9.73;;;5.07;;
974;SDS011;6115;49.296;10.602;2023-04-05T08:32:35;5.77;;;4.20;;
974;SDS011;6115;49.296;10.602;2023-04-05T08:37:36;6.63;;;3.93;;
974;SDS011;6115;49.296;10.602;2023-04-05T08:42:45;7.93;;;4.90;;
974;SDS011;6115;49.296;10.602;2023-04-05T08:47:51;5.10;;;4.20;;
974;SDS011;6115;49.296;10.602;2023-04-05T08:52:54;6.77;;;3.93;;
974;SDS011;6115;49.296;10.602;2023-04-05T08:57:55;5.80;;;4.07;;
974;SDS011;6115;49.296;10.602;2023-04-05T09:02:59;5.97;;;4.10;;
974;SDS011;6115;49.296;10.602;2023-04-05T09:08:01;5.60;;;4.47;;
974;SDS011;6115;49.296;10.602;2023-04-05T09:13:02;7.53;;;4.63;;
974;SDS011;6115;49.296;10.602;2023-04-05T09:18:03;5.17;;;3.87;;
974;SDS011;6115;49.296;10.602;2023-04-05T09:23:04;4.60;;;4.20;;
974;SDS011;6115;49.296;10.602;2023-04-05T09:28:05;5.37;;;4.07;;
974;SDS011;6115;49.296;10.602;2023-04-05T09:33:06;6.60;;;4.60;;
974;SDS011;6115;49.296;10.602;2023-04-05T09:38:09;6.60;;;5.37;;
974;SDS011;6115;49.296;10.602;2023-04-05T09:43:10;8.13;;;4.73;;
974;SDS011;6115;49.296;10.602;2023-04-05T09:48:12;6.13;;;5.23;;
974;SDS011;6115;49.296;10.602;2023-04-05T09:53:12;8.37;;;5.10;;
974;SDS011;6115;49.296;10.602;2023-04-05T09:58:18;8.67;;;5.47;;
974;SDS011;6115;49.296;10.602;2023-04-05T10:03:20;9.53;;;4.70;;
974;SDS011;6115;49.296;10.602;2023-04-05T10:08:24;6.07;;;5.47;;
974;SDS011;6115;49.296;10.602;2023-04-05T10:13:26;5.80;;;5.03;;
974;SDS011;6115;49.296;10.602;2023-04-05T10:18:28;7.80;;;5.70;;
974;SDS011;6115;49.296;10.602;2023-04-05T10:23:42;7.53;;;5.43;;
974;SDS011;6115;49.296;10.602;2023-04-05T10:28:46;6.20;;;5.60;;
974;SDS011;6115;49.296;10.602;2023-04-05T10:33:53;6.70;;;5.30;;
974;SDS011;6115;49.296;10.602;2023-04-05T10:39:10;6.60;;;5.37;;
974;SDS011;6115;49.296;10.602;2023-04-05T10:44:15;5.37;;;4.87;;
974;SDS011;6115;49.296;10.602;2023-04-05T10:49:26;5.80;;;5.10;;
974;SDS011;6115;49.296;10.602;2023-04-05T10:54:33;7.70;;;5.60;;
974;SDS011;6115;49.296;10.602;2023-04-05T10:59:39;5.63;;;5.03;;
974;SDS011;6115;49.296;10.602;2023-04-05T11:04:42;6.80;;;5.83;;
974;SDS011;6115;49.296;10.602;2023-04-05T11:09:52;8.37;;;5.60;;
974;SDS011;6115;49.296;10.602;2023-04-05T11:15:21;7.90;;;6.10;;
974;SDS011;6115;49.296;10.602;2023-04-05T11:20:27;8.10;;;6.17;;
974;SDS011;6115;49.296;10.602;2023-04-05T11:26:26;7.50;;;6.10;;
974;SDS011;6115;49.296;10.602;2023-04-05T11:31:19;6.13;;;5.20;;
974;SDS011;6115;49.296;10.602;2023-04-05T11:46:54;6.13;;;5.50;;
974;SDS011;6115;49.296;10.602;2023-04-05T11:51:55;6.80;;;5.40;;
974;SDS011;6115;49.296;10.602;2023-04-05T11:56:56;6.93;;;5.57;;
974;SDS011;6115;49.296;10.602;2023-04-05T12:02:00;6.50;;;5.73;;
974;SDS011;6115;49.296;10.602;2023-04-05T12:12:16;7.00;;;5.63;;
974;SDS011;6115;49.296;10.602;2023-04-05T12:17:16;6.13;;;5.53;;
974;SDS011;6115;49.296;10.602;2023-04-05T12:22:17;5.50;;;5.00;;
974;SDS011;6115;49.296;10.602;2023-04-05T12:27:17;7.77;;;4.97;;
974;SDS011;6115;49.296;10.602;2023-04-05T12:32:18;6.87;;;5.20;;
974;SDS011;6115;49.296;10.602;2023-04-05T12:37:19;9.50;;;5.33;;
974;SDS011;6115;49.296;10.602;2023-04-05T12:42:21;6.80;;;5.13;;
974;SDS011;6115;49.296;10.602;2023-04-05T12:47:21;6.83;;;5.47;;
974;SDS011;6115;49.296;10.602;2023-04-05T12:52:22;5.20;;;4.80;;
974;SDS011;6115;49.296;10.602;2023-04-05T12:57:30;6.13;;;5.63;;
974;SDS011;6115;49.296;10.602;2023-04-05T13:02:31;5.80;;;5.30;;
974;SDS011;6115;49.296;10.602;2023-04-05T13:07:31;7.13;;;6.43;;
974;SDS011;6115;49.296;10.602;2023-04-05T13:12:32;6.37;;;5.77;;
974;SDS011;6115;49.296;10.602;2023-04-05T13:17:32;5.60;;;5.10;;
974;SDS011;6115;49.296;10.602;2023-04-05T13:22:33;6.70;;;5.57;;
974;SDS011;6115;49.296;10.602;2023-04-05T13:27:34;5.73;;;5.20;;
974;SDS011;6115;49.296;10.602;2023-04-05T13:32:34;8.70;;;5.03;;
974;SDS011;6115;49.296;10.602;2023-04-05T13:37:35;6.60;;;6.00;;
974;SDS011;6115;49.296;10.602;2023-04-05T13:42:36;6.13;;;5.60;;
974;SDS011;6115;49.296;10.602;2023-04-05T13:47:37;5.80;;;5.30;;
974;SDS011;6115;49.296;10.602;2023-04-05T13:52:38;6.60;;;5.47;;
974;SDS011;6115;49.296;10.602;2023-04-05T13:57:38;6.03;;;5.50;;
974;SDS011;6115;49.296;10.602;2023-04-05T14:02:39;9.33;;;6.90;;
974;SDS011;6115;49.296;10.602;2023-04-05T14:07:40;6.23;;;5.63;;
974;SDS011;6115;49.296;10.602;2023-04-05T14:12:41;8.00;;;7.20;;
974;SDS011;6115;49.296;10.602;2023-04-05T14:17:41;5.70;;;5.13;;
974;SDS011;6115;49.296;10.602;2023-04-05T14:22:42;6.67;;;5.50;;
974;SDS011;6115;49.296;10.602;2023-04-05T14:27:42;8.20;;;5.53;;
974;SDS011;6115;49.296;10.602;2023-04-05T14:32:43;5.77;;;5.23;;
974;SDS011;6115;49.296;10.602;2023-04-05T14:37:44;7.13;;;5.73;;
974;SDS011;6115;49.296;10.602;2023-04-05T14:42:44;6.33;;;5.70;;
974;SDS011;6115;49.296;10.602;2023-04-05T14:47:45;5.47;;;5.07;;
974;SDS011;6115;49.296;10.602;2023-04-05T14:52:45;9.50;;;6.20;;
974;SDS011;6115;49.296;10.602;2023-04-05T14:57:46;7.10;;;5.60;;
974;SDS011;6115;49.296;10.602;2023-04-05T15:02:47;5.73;;;5.23;;
974;SDS011;6115;49.296;10.602;2023-04-05T15:07:47;6.27;;;5.70;;
974;SDS011;6115;49.296;10.602;2023-04-05T15:12:48;6.03;;;5.50;;
974;SDS011;6115;49.296;10.602;2023-04-05T15:17:49;6.03;;;5.37;;
974;SDS011;6115;49.296;10.602;2023-04-05T15:22:53;6.17;;;5.57;;
974;SDS011;6115;49.296;10.602;2023-04-05T15:27:53;5.83;;;5.30;;
974;SDS011;6115;49.296;10.602;2023-04-05T15:32:57;6.73;;;5.23;;
974;SDS011;6115;49.296;10.602;2023-04-05T15:37:57;6.63;;;5.90;;
974;SDS011;6115;49.296;10.602;2023-04-05T15:42:59;8.70;;;6.20;;
974;SDS011;6115;49.296;10.602;2023-04-05T15:48:00;7.20;;;6.00;;
974;SDS011;6115;49.296;10.602;2023-04-05T15:53:00;6.10;;;5.50;;
974;SDS011;6115;49.296;10.602;2023-04-05T15:58:01;6.60;;;5.77;;
974;SDS011;6115;49.296;10.602;2023-04-05T16:03:02;7.40;;;5.63;;
974;SDS011;6115;49.296;10.602;2023-04-05T16:08:02;7.13;;;4.90;;
974;SDS011;6115;49.296;10.602;2023-04-05T16:13:03;6.30;;;5.23;;
974;SDS011;6115;49.296;10.602;2023-04-05T16:18:04;6.17;;;5.40;;
974;SDS011;6115;49.296;10.602;2023-04-05T16:23:07;7.00;;;5.40;;
974;SDS011;6115;49.296;10.602;2023-04-05T16:28:21;7.17;;;6.47;;
974;SDS011;6115;49.296;10.602;2023-04-05T16:33:21;6.57;;;5.10;;
974;SDS011;6115;49.296;10.602;2023-04-05T16:38:22;5.63;;;4.57;;
974;SDS011;6115;49.296;10.602;2023-04-05T16:43:22;6.10;;;5.13;;
974;SDS011;6115;49.296;10.602;2023-04-05T16:48:23;7.03;;;5.37;;
974;SDS011;6115;49.296;10.602;2023-04-05T16:53:24;6.27;;;5.33;;
974;SDS011;6115;49.296;10.602;2023-04-05T16:58:24;9.00;;;5.77;;
974;SDS011;6115;49.296;10.602;2023-04-05T17:03:25;8.20;;;5.20;;
974;SDS011;6115;49.296;10.602;2023-04-05T17:08:26;8.23;;;5.90;;
974;SDS011;6115;49.296;10.602;2023-04-05T17:13:26;6.77;;;6.07;;
974;SDS011;6115;49.296;10.602;2023-04-05T17:18:27;7.47;;;6.33;;
974;SDS011;6115;49.296;10.602;2023-04-05T17:23:28;12.23;;;5.90;;
974;SDS011;6115;49.296;10.602;2023-04-05T17:28:28;10.40;;;7.90;;
974;SDS011;6115;49.296;10.602;2023-04-05T17:33:30;9.73;;;8.07;;
974;SDS011;6115;49.296;10.602;2023-04-05T17:38:31;7.80;;;5.00;;
974;SDS011;6115;49.296;10.602;2023-04-05T17:43:32;6.93;;;5.20;;
974;SDS011;6115;49.296;10.602;2023-04-05T17:48:33;8.50;;;5.27;;
974;SDS011;6115;49.296;10.602;2023-04-05T17:53:33;6.73;;;6.07;;
974;SDS011;6115;49.296;10.602;2023-04-05T17:58:34;7.20;;;5.33;;
974;SDS011;6115;49.296;10.602;2023-04-05T18:03:35;7.20;;;6.13;;
974;SDS011;6115;49.296;10.602;2023-04-05T18:08:35;7.70;;;5.73;;
974;SDS011;6115;49.296;10.602;2023-04-05T18:13:36;10.97;;;7.27;;
974;SDS011;6115;49.296;10.602;2023-04-05T18:18:36;10.67;;;7.30;;
974;SDS011;6115;49.296;10.602;2023-04-05T18:23:37;10.03;;;7.60;;
974;SDS011;6115;49.296;10.602;2023-04-05T18:28:38;12.70;;;6.97;;
974;SDS011;6115;49.296;10.602;2023-04-05T18:33:38;10.03;;;7.17;;
974;SDS011;6115;49.296;10.602;2023-04-05T18:38:39;12.17;;;9.53;;
974;SDS011;6115;49.296;10.602;2023-04-05T18:43:40;11.60;;;9.23;;
974;SDS011;6115;49.296;10.602;2023-04-05T18:48:41;9.13;;;7.87;;
974;SDS011;6115;49.296;10.602;2023-04-05T18:53:41;9.43;;;7.70;;
974;SDS011;6115;49.296;10.602;2023-04-05T18:58:43;13.60;;;10.20;;
974;SDS011;6115;49.296;10.602;2023-04-05T19:03:44;22.00;;;12.40;;
974;SDS011;6115;49.296;10.602;2023-04-05T19:08:46;24.20;;;12.20;;
974;SDS011;6115;49.296;10.602;2023-04-05T19:13:47;20.90;;;11.77;;
974;SDS011;6115;49.296;10.602;2023-04-05T19:18:47;21.13;;;12.07;;
974;SDS011;6115;49.296;10.602;2023-04-05T19:23:48;19.93;;;11.63;;
974;SDS011;6115;49.296;10.602;2023-04-05T19:28:49;11.83;;;10.10;;
974;SDS011;6115;49.296;10.602;2023-04-05T19:33:51;13.43;;;8.53;;
974;SDS011;6115;49.296;10.602;2023-04-05T19:38:52;15.87;;;9.13;;
974;SDS011;6115;49.296;10.602;2023-04-05T19:43:52;20.30;;;9.50;;
974;SDS011;6115;49.296;10.602;2023-04-05T19:48:53;13.87;;;9.90;;
974;SDS011;6115;49.296;10.602;2023-04-05T19:53:55;18.50;;;11.70;;
974;SDS011;6115;49.296;10.602;2023-04-05T19:58:58;18.20;;;10.97;;
974;SDS011;6115;49.296;10.602;2023-04-05T20:04:24;19.00;;;11.33;;
974;SDS011;6115;49.296;10.602;2023-04-05T20:09:25;14.53;;;11.00;;
974;SDS011;6115;49.296;10.602;2023-04-05T20:14:38;13.07;;;9.60;;
974;SDS011;6115;49.296;10.602;2023-04-05T20:19:53;22.40;;;12.10;;
974;SDS011;6115;49.296;10.602;2023-04-05T20:25:01;19.83;;;11.47;;
974;SDS011;6115;49.296;10.602;2023-04-05T20:30:24;18.60;;;10.67;;
974;SDS011;6115;49.296;10.602;2023-04-05T20:35:31;15.27;;;10.77;;
974;SDS011;6115;49.296;10.602;2023-04-05T20:40:33;16.33;;;9.90;;
974;SDS011;6115;49.296;10.602;2023-04-05T20:45:35;11.83;;;9.77;;
974;SDS011;6115;49.296;10.602;2023-04-05T20:50:36;17.50;;;11.53;;
974;SDS011;6115;49.296;10.602;2023-04-05T20:55:38;10.20;;;7.70;;
974;SDS011;6115;49.296;10.602;2023-04-05T21:00:39;11.17;;;8.67;;
974;SDS011;6115;49.296;10.602;2023-04-05T21:05:40;12.07;;;7.77;;
974;SDS011;6115;49.296;10.602;2023-04-05T21:10:41;13.87;;;7.67;;
974;SDS011;6115;49.296;10.602;2023-04-05T21:15:42;11.43;;;9.23;;
974;SDS011;6115;49.296;10.602;2023-04-05T21:20:43;11.67;;;8.33;;
974;SDS011;6115;49.296;10.602;2023-04-05T21:25:49;14.30;;;9.70;;
974;SDS011;6115;49.296;10.602;2023-04-05T21:30:50;12.70;;;9.07;;
974;SDS011;6115;49.296;10.602;2023-04-05T21:35:51;13.70;;;10.53;;
974;SDS011;6115;49.296;10.602;2023-04-05T21:40:51;13.60;;;9.40;;
974;SDS011;6115;49.296;10.602;2023-04-05T21:45:54;16.40;;;9.73;;
974;SDS011;6115;49.296;10.602;2023-04-05T21:50:54;14.00;;;9.60;;
974;SDS011;6115;49.296;10.602;2023-04-05T21:55:55;14.30;;;9.90;;
974;SDS011;6115;49.296;10.602;2023-04-05T22:00:56;15.20;;;9.97;;
974;SDS011;6115;49.296;10.602;2023-04-05T22:05:59;11.43;;;9.43;;
974;SDS011;6115;49.296;10.602;2023-04-05T22:11:00;14.23;;;9.87;;
974;SDS011;6115;49.296;10.602;2023-04-05T22:16:00;17.17;;;10.50;;
974;SDS011;6115;49.296;10.602;2023-04-05T22:21:01;13.27;;;9.50;;
974;SDS011;6115;49.296;10.602;2023-04-05T22:26:02;11.07;;;8.70;;
974;SDS011;6115;49.296;10.602;2023-04-05T22:31:02;12.13;;;7.40;;
974;SDS011;6115;49.296;10.602;2023-04-05T22:36:03;11.03;;;8.40;;
974;SDS011;6115;49.296;10.602;2023-04-05T22:41:04;11.10;;;8.13;;
974;SDS011;6115;49.296;10.602;2023-04-05T22:46:05;10.90;;;8.13;;
974;SDS011;6115;49.296;10.602;2023-04-05T22:51:06;9.90;;;7.17;;
974;SDS011;6115;49.296;10.602;2023-04-05T22:56:07;13.57;;;8.50;;
974;SDS011;6115;49.296;10.602;2023-04-05T23:01:08;16.10;;;10.97;;
974;SDS011;6115;49.296;10.602;2023-04-05T23:06:09;14.33;;;10.03;;
974;SDS011;6115;49.296;10.602;2023-04-05T23:11:10;14.90;;;10.50;;
974;SDS011;6115;49.296;10.602;2023-04-05T23:16:10;12.07;;;8.90;;
974;SDS011;6115;49.296;10.602;2023-04-05T23:21:11;16.77;;;9.83;;
974;SDS011;6115;49.296;10.602;2023-04-05T23:26:12;15.70;;;9.13;;
974;SDS011;6115;49.296;10.602;2023-04-05T23:31:12;14.90;;;9.63;;
974;SDS011;6115;49.296;10.602;2023-04-05T23:36:13;18.97;;;10.30;;
974;SDS011;6115;49.296;10.602;2023-04-05T23:41:13;15.67;;;8.87;;
974;SDS011;6115;49.296;10.602;2023-04-05T23:46:14;15.13;;;8.50;;
974;SDS011;6115;49.296;10.602;2023-04-05T23:51:15;13.87;;;9.77;;
974;SDS011;6115;49.296;10.602;2023-04-05T23:56:16;16.40;;;9.37;;
